EDGS

Siegerland Airport

Germany
METAR EDGS 151550Z 13017KT 9999 OVC013 M04/M07 Q1020
Observed Flight Rules
Dec-15 @ 15:50 UTC (15 hours ago) Marginal Visual Flight Rules
Wind Visibility Clouds
130° at 17 knots 10,000+ meters
  • Overcast at 1,300' AGL
Temperatures Readings
Current -4°C / 25°F
Dewpoint -7°C / 19°F
Humidity 80%
Altimeter 30.12" Hg
Pressure 1020 hPa
Elevation 602
METAR EDGS 151550Z 13017KT 9999 OVC013 M04/M07 Q1020
Observed Flight Rules
Dec-15 @ 15:50 UTC
(15 hours ago)
MVFR
Wind Visibility
130° at 17 knots 10,000+ meters
Clouds
  • Overcast at 1,300' AGL
Temperature Dewpoint
-4°C / 25°F -7°C / 19°F
Humidity Altimeter Pressure
80% 30.12" Hg 1020 hPa